메인 페이지
METAR-TAF:

METAR-TAF

공항 :

베나지르 부토 국제공항

이슬라마바드, 파키스탄

위도: 33-37N, 경도: 073-06E, 고도: 507m

현재 날씨관측

예보는 34분 전, 14:00시(UTC)에 발표되었습니다.
북서8kt
온도 19°C
습도 52%
기압 1019 hPa
시정: 7000m

METAR: OPRN 191400Z 31008KT 7000 NSC 19/09 Q1019 NOSIG RMK A3011

시각: 19:34 (14:34 UTC)

예보

예보는 5 시간 4분 전, 09:30시(UTC)에 발표되었습니다.
예보 대상 시간: 19일 12시부터 20일 18시까지 (UTC)
남서10kt
시정 10km 이상
고도 4000ft 상공 구름 조금
고도 10000ft 상공 구름 조금
일시적
20일 00시부터 20일 05시까지 (UTC)
여러 방향의 바람 3kt
연무

TAF: OPRN 190930Z 1912/2018 23010KT 9999 FEW040 FEW100 TEMPO 2000/2005 VRB03KT 40000 HZ

4,000개 이상의 공항 관측 자료 및 예보 (METAR 및 TAF 보고).

지도상에서 검색 가능한 기상관측소가 노란 점과 빨간 점으로 표시되어 있습니다.

기상관측소 명을 보려면 표시 위로 마우스를 이동하세요.

날씨 관측과 예보를 보려면 클릭하세요.

지도 변경 : 확대하려면 엑스 표시가 있는 녹색 버튼, 축소하려면 빼기 표시가 있는 녹색 버튼, 다음 페이지의 지도를 보려면 녹색 화살표를 클릭하세요.


METAR-TAF: